tititudorancea.com
Station Historical Data
Daily Summary for January 10, 2019 Units:  Metric    English   Both
« Previous Day
Next Day »
Daily Weekly Monthly Yearly Custom
  High: Low: Average:
Temperature: -17.8 °C 7.1 °C 14.8 °C
Dew Point: -17.8 °C 3.4 °C 5.6 °C
Humidity: Humidity % 26 % 58 %
Wind Speed: 0 km/h 0 km/h 11.4 km/h
Wind Gust: 0 km/h - -
Wind:- - South
Pressure: 0 hPa 1014.4 hPa -
Precipitation: 0 mm    
Historical Graphs
 
 
Ararat weather Find more about Weather in Ararat, AU


 



 


Tabular Data for January 10, 2019
Time Temperature Dew Point Pressure Wind Wind Speed Wind Gust Humidity Rainfall Rate (Hourly)
-17.8 °C -17.8 °C 0 hPa Calm     Humidity % 0 mm
00:04 11.1 °C 5.6 °C 1017.8 hPa South 11.3 km/h 7.1 km/h 69 % 0 mm
00:09 10.9 °C 5.5 °C 1017.8 hPa South 8 km/h 4.8 km/h 69 % 0 mm
00:14 10.8 °C 5.5 °C 1017.8 hPa South 13 km/h 8 km/h 70 % 0 mm
00:19 10.7 °C 5.4 °C 1017.8 hPa North 11.1 km/h 6.9 km/h 70 % 0 mm
00:24 10.6 °C 5.4 °C 1017.5 hPa South 11.1 km/h 5.5 km/h 70 % 0 mm
00:29 10.6 °C 5.5 °C 1017.5 hPa South 13 km/h 8 km/h 71 % 0 mm
00:34 10.5 °C 5.4 °C 1017.5 hPa South 9.7 km/h 4.7 km/h 71 % 0 mm
00:39 10.4 °C 5.4 °C 1017.5 hPa South 9.7 km/h 6.1 km/h 71 % 0 mm
00:44 10.3 °C 5.3 °C 1017.5 hPa North 5.6 km/h 3.9 km/h 71 % 0 mm
00:49 10.3 °C 5.4 °C 1017.5 hPa South 5.6 km/h 2.4 km/h 72 % 0 mm
00:54 10.2 °C 5.3 °C 1017.5 hPa South 7.4 km/h 4.3 km/h 72 % 0 mm
00:59 10.1 °C 5.3 °C 1017.5 hPa South 5.6 km/h 0.2 km/h 72 % 0 mm
01:04 10.1 °C 5.4 °C 1017.5 hPa North 11.1 km/h 6.1 km/h 73 % 0 mm
01:09 10 °C 5.4 °C 1017.5 hPa North 5.6 km/h 4 km/h 73 % 0 mm
01:14 9.9 °C 5.3 °C 1017.5 hPa South 9.3 km/h 1.9 km/h 73 % 0 mm
01:19 9.9 °C 5.4 °C 1017.5 hPa South 9.3 km/h 4.8 km/h 74 % 0 mm
01:24 9.8 °C 5.4 °C 1017.5 hPa North 9.3 km/h 5.8 km/h 74 % 0 mm
01:29 9.8 °C 5.6 °C 1017.5 hPa North 13 km/h 10.9 km/h 75 % 0 mm
01:34 9.8 °C 5.6 °C 1017.5 hPa South 13 km/h 8 km/h 75 % 0 mm
01:39 9.8 °C 5.6 °C 1017.5 hPa South 5.6 km/h 4.7 km/h 75 % 0 mm
01:44 9.7 °C 5.3 °C 1017.5 hPa North 9.3 km/h 4 km/h 74 % 0 mm
01:49 9.6 °C 5.3 °C 1017.5 hPa South 5.6 km/h 3.1 km/h 75 % 0 mm
01:54 9.3 °C 5.3 °C 1017.5 hPa South 9.3 km/h 4.5 km/h 76 % 0 mm
01:59 9.2 °C 5.2 °C 1017.5 hPa South 5.6 km/h 2.6 km/h 76 % 0 mm
02:04 9.1 °C 5.3 °C 1017.5 hPa South 7.4 km/h 6.1 km/h 77 % 0 mm
02:09 9 °C 5.4 °C 1017.5 hPa South 9.3 km/h 3.5 km/h 78 % 0 mm
02:14 8.9 °C 5.3 °C 1017.5 hPa South 6.4 km/h 3.2 km/h 78 % 0 mm
02:19 8.8 °C 5.2 °C 1017.5 hPa South 5.6 km/h 5 km/h 78 % 0 mm
02:24 8.7 °C 5.3 °C 1017.5 hPa South 3.7 km/h 3.5 km/h 79 % 0 mm
02:29 8.6 °C 5.2 °C 1017.5 hPa South 5.6 km/h 3.9 km/h 79 % 0 mm
02:34 8.6 °C 5.1 °C 1017.5 hPa South 5.6 km/h 2.9 km/h 79 % 0 mm
02:39 8.5 °C 5.1 °C 1017.5 hPa South 7.4 km/h 5.8 km/h 79 % 0 mm
02:44 8.4 °C 5.2 °C 1017.5 hPa South 9.3 km/h 7.6 km/h 80 % 0 mm
02:49 8.4 °C 5.1 °C 1017.5 hPa South 7.4 km/h 3.9 km/h 80 % 0 mm
02:54 8.4 °C 5.3 °C 1017.5 hPa North 3.7 km/h 1.8 km/h 81 % 0 mm
02:59 8.3 °C 5.1 °C 1017.5 hPa South 5.6 km/h 2.4 km/h 80 % 0 mm
03:04 8.2 °C 5.2 °C 1017.2 hPa North 5.6 km/h 3.7 km/h 81 % 0 mm
03:09 8.2 °C 5.1 °C 1017.2 hPa South 5.6 km/h 4.5 km/h 81 % 0 mm
03:14 8.1 °C 5.1 °C 1017.2 hPa South 7.4 km/h 4 km/h 81 % 0 mm
03:19 8.1 °C 5 °C 1017.2 hPa North 5.6 km/h 3.7 km/h 81 % 0 mm
03:24 8.1 °C 5.2 °C 1017.2 hPa South 9.3 km/h 4.8 km/h 82 % 0 mm
03:29 8 °C 5.1 °C 1017.2 hPa South 4.8 km/h 2.6 km/h 82 % 0 mm
03:34 8 °C 5.1 °C 1017.2 hPa North 5.6 km/h 5.1 km/h 82 % 0 mm
03:39 7.9 °C 5.1 °C 1016.8 hPa South 7.4 km/h 6 km/h 82 % 0 mm
03:44 7.9 °C 5.2 °C 1016.8 hPa South 6.4 km/h 4.2 km/h 83 % 0 mm
03:49 7.9 °C 5.2 °C 1016.8 hPa North 5.6 km/h 4.2 km/h 83 % 0 mm
03:54 7.9 °C 5.2 °C 1016.8 hPa South 7.4 km/h 4.3 km/h 83 % 0 mm
03:59 7.9 °C 5.2 °C 1016.5 hPa South 5.6 km/h 3.4 km/h 83 % 0 mm
04:04 7.9 °C 5.2 °C 1016.5 hPa North 9.3 km/h 5.3 km/h 83 % 0 mm
04:09 7.9 °C 5.2 °C 1016.8 hPa South 5.6 km/h 5.3 km/h 83 % 0 mm
04:14 7.9 °C 5.2 °C 1016.8 hPa South 3.7 km/h 1.9 km/h 83 % 0 mm
04:19 7.9 °C 5.2 °C 1016.8 hPa South 5.6 km/h 1.6 km/h 83 % 0 mm
04:24 7.9 °C 5.2 °C 1016.8 hPa South 7.4 km/h 2.6 km/h 83 % 0 mm
04:29 7.9 °C 5.2 °C 1016.5 hPa North 3.7 km/h 1.1 km/h 83 % 0 mm
04:34 7.9 °C 5.2 °C 1016.8 hPa South 3.7 km/h 1.9 km/h 83 % 0 mm
04:39 7.8 °C 4.9 °C 1016.8 hPa South 1.9 km/h   82 % 0 mm
04:44 7.7 °C 4.9 °C 1016.8 hPa Calm     83 % 0 mm
04:49 7.6 °C 4.9 °C 1016.8 hPa Calm     83 % 0 mm
04:54 7.5 °C 4.8 °C 1016.8 hPa Calm     83 % 0 mm
04:59 7.4 °C 4.7 °C 1017.2 hPa Calm     83 % 0 mm
05:04 7.3 °C 4.8 °C 1017.2 hPa Calm     84 % 0 mm
05:09 7.2 °C 4.7 °C 1016.8 hPa North 3.7 km/h 2.4 km/h 84 % 0 mm
05:14 7.1 °C 4.8 °C 1017.2 hPa South 3.7 km/h 2.4 km/h 85 % 0 mm
05:19 7.1 °C 4.8 °C 1017.2 hPa South 7.4 km/h 4.2 km/h 85 % 0 mm
05:24 7.1 °C 4.9 °C 1017.2 hPa North 7.4 km/h 3.5 km/h 86 % 0 mm
05:29 7.3 °C 5.1 °C 1016.8 hPa North 5.6 km/h 5.3 km/h 86 % 0 mm
05:34 7.4 °C 5.2 °C 1017.2 hPa South 7.4 km/h 5 km/h 86 % 0 mm
05:39 7.5 °C 5.2 °C 1017.2 hPa South 7.4 km/h 6.8 km/h 85 % 0 mm
05:44 7.7 °C 5.3 °C 1017.2 hPa South 8 km/h 4 km/h 85 % 0 mm
05:49 7.7 °C 5.3 °C 1017.2 hPa South 7.4 km/h 5.3 km/h 85 % 0 mm
05:54 7.8 °C 5.4 °C 1016.8 hPa South 9.3 km/h 9.2 km/h 85 % 0 mm
05:59 7.9 °C 5.4 °C 1016.8 hPa South 7.4 km/h 6.9 km/h 84 % 0 mm
06:04 7.9 °C 5.4 °C 1017.2 hPa South 7.4 km/h 4.3 km/h 84 % 0 mm
06:09 7.9 °C 5.2 °C 1017.2 hPa South 5.6 km/h 1.6 km/h 83 % 0 mm
06:14 7.9 °C 5.2 °C 1017.5 hPa South 3.7 km/h 1.8 km/h 83 % 0 mm
06:19 7.8 °C 5.1 °C 1017.5 hPa South 3.7 km/h 2.3 km/h 83 % 0 mm
06:24 7.6 °C 4.8 °C 1017.5 hPa South 1.9 km/h   83 % 0 mm
06:29 7.4 °C 4.8 °C 1017.8 hPa Calm     84 % 0 mm
06:34 7.3 °C 4.8 °C 1017.8 hPa Calm     84 % 0 mm
06:39 7.2 °C 4.7 °C 1018.2 hPa Calm     84 % 0 mm
06:44 7.1 °C 4.7 °C 1018.2 hPa Calm     85 % 0 mm
06:49 7.1 °C 4.8 °C 1018.2 hPa South 3.7 km/h 2.7 km/h 85 % 0 mm
06:54 7.3 °C 5.1 °C 1018.2 hPa South 6.4 km/h 4.2 km/h 86 % 0 mm
06:59 7.6 °C 5.4 °C 1018.2 hPa South 8 km/h 6.4 km/h 86 % 0 mm
07:04 7.9 °C 5.7 °C 1018.2 hPa South 5.6 km/h 3.4 km/h 86 % 0 mm
07:09 8.2 °C 5.8 °C 1018.2 hPa North 3.7 km/h 2.4 km/h 85 % 0 mm
07:14 8.6 °C 6.2 °C 1018.2 hPa South 6.4 km/h 3.1 km/h 85 % 0 mm
07:19 8.9 °C 6.3 °C 1018.2 hPa South 7.4 km/h 2.4 km/h 84 % 0 mm
07:24 9.1 °C 6.4 °C 1018.5 hPa South 5.6 km/h 4.5 km/h 83 % 0 mm
07:29 9.5 °C 6.8 °C 1018.5 hPa South 6.4 km/h 4.2 km/h 83 % 0 mm
07:34 9.7 °C 6.6 °C 1018.5 hPa South 7.4 km/h 2.6 km/h 81 % 0 mm
07:39 9.8 °C 6.7 °C 1018.5 hPa South 5.6 km/h 5.5 km/h 81 % 0 mm
07:44 10.1 °C 6.9 °C 1018.8 hPa South 3.7 km/h 2.6 km/h 81 % 0 mm
07:49 10.3 °C 7 °C 1018.5 hPa South 7.4 km/h 4 km/h 80 % 0 mm
07:54 10.5 °C 6.8 °C 1018.8 hPa South 7.4 km/h 4.8 km/h 78 % 0 mm
07:59 10.9 °C 7.2 °C 1018.8 hPa South 9.3 km/h 6.4 km/h 78 % 0 mm
08:04 11.1 °C 7.1 °C 1018.8 hPa South 9.3 km/h 1.8 km/h 76 % 0 mm
08:09 11.3 °C 7.2 °C 1018.8 hPa South 9.3 km/h 4.2 km/h 76 % 0 mm
08:14 11.7 °C 7.2 °C 1018.8 hPa South 9.3 km/h 4.8 km/h 74 % 0 mm
08:19 12 °C 7.3 °C 1018.8 hPa South 9.7 km/h 7.9 km/h 73 % 0 mm
08:24 12.1 °C 7.2 °C 1018.8 hPa South 7.4 km/h 6 km/h 72 % 0 mm
08:29 12.3 °C 7.4 °C 1018.8 hPa South 9.3 km/h 4.5 km/h 72 % 0 mm
08:34 12.5 °C 7.4 °C 1018.8 hPa South 11.3 km/h 6.9 km/h 71 % 0 mm
08:39 12.7 °C 7.4 °C 1018.8 hPa South 11.3 km/h 8.7 km/h 70 % 0 mm
08:44 12.9 °C 7.4 °C 1018.8 hPa South 13 km/h 13 km/h 69 % 0 mm
08:49 13 °C 7.2 °C 1018.8 hPa South 9.3 km/h 5.3 km/h 68 % 0 mm
08:54 13.3 °C 7.6 °C 1018.5 hPa South 11.1 km/h 6.8 km/h 68 % 0 mm
08:59 13.7 °C 7.4 °C 1018.8 hPa South 18.5 km/h 13.7 km/h 66 % 0 mm
09:04 13.9 °C 7.2 °C 1018.8 hPa South 18.5 km/h 12.9 km/h 64 % 0 mm
09:09 14.2 °C 7.2 °C 1018.8 hPa SSE 16.7 km/h 7.9 km/h 63 % 0 mm
09:14 14.4 °C 7 °C 1018.8 hPa SSE 20.4 km/h 14.3 km/h 61 % 0 mm
09:19 14.4 °C 7 °C 1018.8 hPa SSE 16.7 km/h 11.4 km/h 61 % 0 mm
09:24 14.4 °C 6.8 °C 1018.8 hPa SE 20.4 km/h 14 km/h 60 % 0 mm
09:29 14.6 °C 6.6 °C 1018.8 hPa SSE 20.4 km/h 14.6 km/h 59 % 0 mm
09:34 14.7 °C 6.8 °C 1018.8 hPa SSE 18.5 km/h 14 km/h 59 % 0 mm
09:39 14.8 °C 6.9 °C 1018.5 hPa SE 24.1 km/h 10.5 km/h 59 % 0 mm
09:44 14.9 °C 6.7 °C 1018.5 hPa SSE 18.5 km/h 11.4 km/h 58 % 0 mm
09:49 15.2 °C 6.8 °C 1018.5 hPa SSE 27.8 km/h 13 km/h 57 % 0 mm
09:54 15.1 °C 6.6 °C 1018.5 hPa SSE 18.5 km/h 11.4 km/h 57 % 0 mm
09:59 14.9 °C 6.5 °C 1018.5 hPa SSE 22.2 km/h 15.9 km/h 57 % 0 mm
10:04 15.3 °C 7.1 °C 1018.2 hPa South 18.5 km/h 16.3 km/h 58 % 0 mm
10:09 15.4 °C 6.4 °C 1018.5 hPa SSE 19.3 km/h 13.7 km/h 55 % 0 mm
10:14 15.4 °C 6.4 °C 1018.5 hPa SSE 20.4 km/h 14.2 km/h 55 % 0 mm
10:19 15.2 °C 5.9 °C 1018.5 hPa SSE 22.2 km/h 15.3 km/h 54 % 0 mm
10:24 15.3 °C 6.3 °C 1018.5 hPa SSE 24.1 km/h 18.5 km/h 55 % 0 mm
10:29 15.4 °C 6.4 °C 1018.5 hPa SSE 13 km/h 8.9 km/h 55 % 0 mm
10:34 15.5 °C 6.5 °C 1018.5 hPa South 11.3 km/h 10.5 km/h 55 % 0 mm
10:39 15.8 °C 6.5 °C 1018.5 hPa SSE 14.5 km/h 11.6 km/h 54 % 0 mm
10:44 16.1 °C 6.4 °C 1018.5 hPa SE 24.1 km/h 13 km/h 53 % 0 mm
10:49 16.4 °C 6.2 °C 1018.5 hPa SE 13 km/h 7.2 km/h 51 % 0 mm
10:54 16.4 °C 6.3 °C 1018.2 hPa SSE 18.5 km/h 13.2 km/h 51 % 0 mm
10:59 16.2 °C 6.3 °C 1018.2 hPa SSE 22.2 km/h 15.6 km/h 52 % 0 mm
11:04 16.2 °C 6.3 °C 1018.2 hPa South 16.7 km/h 8.9 km/h 52 % 0 mm
11:09 16.6 °C 7 °C 1018.2 hPa SSE 18.5 km/h 11.4 km/h 53 % 0 mm
11:14 16.9 °C 6.4 °C 1018.2 hPa SSW 18.5 km/h 13 km/h 50 % 0 mm
11:15 16.9 °C 6.1 °C 1018.2 hPa SSW 18.5 km/h 11.9 km/h 49 % 0 mm
15:29 22.6 °C 5.1 °C 1015.5 hPa SE 20.9 km/h 10.6 km/h 32 % 0 mm
15:34 22.6 °C 5.1 °C 1015.5 hPa SSE 20.4 km/h 12.9 km/h 32 % 0 mm
15:39 22.5 °C 5 °C 1015.5 hPa South 14.8 km/h 13.2 km/h 32 % 0 mm
15:44 22.8 °C 5.2 °C 1015.5 hPa South 14.8 km/h 9.8 km/h 32 % 0 mm
15:49 23.1 °C 5 °C 1015.5 hPa SSE 11.3 km/h 7.6 km/h 31 % 0 mm
15:54 23.4 °C 5.3 °C 1015.5 hPa SE 12.9 km/h 12.2 km/h 31 % 0 mm
15:59 23.3 °C 5.2 °C 1015.5 hPa SE 13 km/h 8.9 km/h 31 % 0 mm
16:04 22.9 °C 4.9 °C 1015.5 hPa SSW 17.7 km/h 8 km/h 31 % 0 mm
16:09 23.1 °C 5.1 °C 1015.5 hPa South 16.7 km/h 10.3 km/h 31 % 0 mm
16:14 23.1 °C 5 °C 1015.5 hPa South 14.8 km/h 6.6 km/h 31 % 0 mm
16:19 23.4 °C 5.3 °C 1015.1 hPa SSE 13 km/h 6.1 km/h 31 % 0 mm
16:24 23.7 °C 5.1 °C 1015.1 hPa SSE 16.7 km/h 7.9 km/h 30 % 0 mm
16:29 23.7 °C 4.6 °C 1015.1 hPa South 18.5 km/h 13.5 km/h 29 % 0 mm
16:34 23.7 °C 4.6 °C 1015.1 hPa South 11.3 km/h 10.6 km/h 29 % 0 mm
16:39 23.7 °C 4.6 °C 1015.1 hPa South 12.9 km/h 9.7 km/h 29 % 0 mm
16:44 23.7 °C 4.6 °C 1015.1 hPa South 14.8 km/h 7.4 km/h 29 % 0 mm
16:49 24.1 °C 5.4 °C 1015.1 hPa SSE 16.7 km/h 8.5 km/h 30 % 0 mm
16:54 24.1 °C 4.9 °C 1014.8 hPa SSW 18.5 km/h 5.6 km/h 29 % 0 mm
16:59 24.3 °C 5.1 °C 1015.1 hPa SE 22.2 km/h 14.3 km/h 29 % 0 mm
17:04 24.5 °C 4.8 °C 1015.1 hPa SE 13 km/h 10.8 km/h 28 % 0 mm
17:09 24.6 °C 4.3 °C 1015.1 hPa SE 14.8 km/h 9.2 km/h 27 % 0 mm
17:14 24.2 °C 5 °C 1014.8 hPa SE 11.1 km/h 10.5 km/h 29 % 0 mm
17:19 23.8 °C 5.2 °C 1014.8 hPa SSE 11.1 km/h 5.1 km/h 30 % 0 mm
17:24 23.9 °C 4.3 °C 1014.8 hPa SSE 11.1 km/h 7.7 km/h 28 % 0 mm
17:29 24.1 °C 4.4 °C 1014.8 hPa SSE 9.3 km/h 3.1 km/h 28 % 0 mm
17:34 24.2 °C 4.5 °C 1014.8 hPa South 16.7 km/h 12.2 km/h 28 % 0 mm
17:39 24.4 °C 4.2 °C 1014.4 hPa SSE 13 km/h 9.5 km/h 27 % 0 mm
17:44 24.7 °C 3.9 °C 1014.4 hPa SSE 11.1 km/h 10.5 km/h 26 % 0 mm
17:49 24.8 °C 4 °C 1014.4 hPa SSE 8 km/h 3.9 km/h 26 % 0 mm
17:54 25.1 °C 4.2 °C 1014.4 hPa SSE 20.4 km/h 14.6 km/h 26 % 0 mm
17:59 25.2 °C 4.8 °C 1014.4 hPa SSE 14.8 km/h 8.2 km/h 27 % 0 mm
18:04 24.9 °C 4.7 °C 1014.4 hPa South 19.3 km/h 14.2 km/h 27 % 0 mm
18:09 24.6 °C 4.9 °C 1014.4 hPa South 18.5 km/h 8.4 km/h 28 % 0 mm
18:14 24.6 °C 4.9 °C 1014.4 hPa South 19.3 km/h 9.5 km/h 28 % 0 mm
18:19 24.6 °C 4.3 °C 1014.4 hPa SSE 18.5 km/h 14 km/h 27 % 0 mm
18:24 24.5 °C 4.3 °C 1014.4 hPa SE 16.1 km/h 14.6 km/h 27 % 0 mm
18:29 24.4 °C 4.7 °C 1014.4 hPa SSE 20.4 km/h 9.3 km/h 28 % 0 mm
18:34 24.3 °C 4.1 °C 1014.4 hPa South 22.2 km/h 9.5 km/h 27 % 0 mm
18:39 24.1 °C 3.9 °C 1014.4 hPa SSW 18.5 km/h 9.3 km/h 27 % 0 mm
18:44 23.9 °C 3.7 °C 1014.4 hPa SSW 13 km/h 7.6 km/h 27 % 0 mm
18:49 23.7 °C 3.6 °C 1014.4 hPa South 14.8 km/h 9.2 km/h 27 % 0 mm
18:54 23.7 °C 4.1 °C 1014.4 hPa SSE 16.7 km/h 11.6 km/h 28 % 0 mm
18:59 23.8 °C 4.2 °C 1014.4 hPa South 16.1 km/h 10.3 km/h 28 % 0 mm
19:04 23.8 °C 3.7 °C 1014.4 hPa South 18.5 km/h 9.2 km/h 27 % 0 mm
19:09 23.8 °C 3.7 °C 1014.4 hPa SSW 18.5 km/h 12.6 km/h 27 % 0 mm
19:14 23.8 °C 4.2 °C 1014.4 hPa SSE 14.8 km/h 12.7 km/h 28 % 0 mm
19:19 23.9 °C 4.3 °C 1014.4 hPa SSW 18.5 km/h 12.7 km/h 28 % 0 mm
19:24 23.7 °C 3.6 °C 1014.8 hPa South 14.8 km/h 9.7 km/h 27 % 0 mm
19:29 23.6 °C 4 °C 1014.8 hPa SSE 18.5 km/h 9.3 km/h 28 % 0 mm
19:34 23.6 °C 4 °C 1014.8 hPa SSE 13 km/h 6.9 km/h 28 % 0 mm
19:39 23.6 °C 4 °C 1014.8 hPa SE 22.2 km/h 15.6 km/h 28 % 0 mm
19:44 23.5 °C 3.4 °C 1014.8 hPa SSE 16.7 km/h 11.6 km/h 27 % 0 mm
19:49 23.3 °C 3.7 °C 1014.8 hPa SSE 14.8 km/h 9.8 km/h 28 % 0 mm
19:54 22.9 °C 3.9 °C 1014.8 hPa SSE 18.5 km/h 11.9 km/h 29 % 0 mm
19:59 22.6 °C 4.6 °C 1015.1 hPa SSE 11.1 km/h 9 km/h 31 % 0 mm
20:04 22.2 °C 4.3 °C 1015.1 hPa SSE 16.7 km/h 10.5 km/h 31 % 0 mm
20:09 21.9 °C 4.5 °C 1015.1 hPa SSE 9.7 km/h 10.1 km/h 32 % 0 mm
20:14 21.8 °C 4.8 °C 1015.1 hPa SSE 11.1 km/h 5.1 km/h 33 % 0 mm
20:19 21.8 °C 4.8 °C 1015.1 hPa SSE 13 km/h 7.2 km/h 33 % 0 mm
20:24 21.7 °C 4.7 °C 1015.1 hPa SSE 9.3 km/h 6.4 km/h 33 % 0 mm
20:29 21.4 °C 4.9 °C 1015.1 hPa South 16.7 km/h 12.2 km/h 34 % 0 mm
20:34 21.2 °C 4.7 °C 1015.1 hPa South 14.8 km/h 10.6 km/h 34 % 0 mm
20:39 21 °C 4.9 °C 1015.1 hPa SSE 14.8 km/h 9.2 km/h 35 % 0 mm
20:44 20.7 °C 5.1 °C 1015.1 hPa SSE 13 km/h 8.5 km/h 36 % 0 mm
20:49 20.5 °C 5.3 °C 1015.5 hPa SSE 16.7 km/h 7.4 km/h 37 % 0 mm
20:54 20.3 °C 5.1 °C 1015.5 hPa North 9.3 km/h 7.7 km/h 37 % 0 mm
20:59 20.1 °C 4.9 °C 1015.5 hPa SSE 13 km/h 10.3 km/h 37 % 0 mm
21:04 19.9 °C 5.2 °C 1015.5 hPa SSE 11.1 km/h 7.2 km/h 38 % 0 mm
21:09 19.8 °C 5.1 °C 1015.5 hPa South 9.3 km/h 9.3 km/h 38 % 0 mm
21:14 19.6 °C 4.9 °C 1015.5 hPa South 11.1 km/h 7.1 km/h 38 % 0 mm
21:19 19.4 °C 5.1 °C 1015.5 hPa South 9.3 km/h 3.9 km/h 39 % 0 mm
21:24 19.3 °C 5.3 °C 1015.5 hPa South 11.1 km/h 7.2 km/h 40 % 0 mm
21:29 19.2 °C 5.6 °C 1015.5 hPa South 13 km/h 7.4 km/h 41 % 0 mm
21:34 18.9 °C 5.7 °C 1015.5 hPa South 9.3 km/h 4.8 km/h 42 % 0 mm
21:39 18.8 °C 5.9 °C 1015.5 hPa South 11.1 km/h 7.6 km/h 43 % 0 mm
21:44 18.6 °C 6.4 °C 1015.8 hPa South 13 km/h 8.7 km/h 45 % 0 mm
21:49 18.4 °C 6.6 °C 1015.8 hPa South 9.7 km/h 10.9 km/h 46 % 0 mm
21:54 18.1 °C 6.9 °C 1015.8 hPa South 11.1 km/h 8.4 km/h 48 % 0 mm
21:59 17.8 °C 7.3 °C 1015.8 hPa South 14.8 km/h 8.9 km/h 50 % 0 mm
22:04 17.6 °C 7.3 °C 1015.8 hPa South 11.1 km/h 6.1 km/h 51 % 0 mm
22:09 17.3 °C 7.4 °C 1015.8 hPa South 11.1 km/h 10.5 km/h 52 % 0 mm
22:14 17.1 °C 7.4 °C 1015.8 hPa South 16.7 km/h 10.9 km/h 53 % 0 mm
22:19 16.9 °C 7.5 °C 1015.8 hPa South 18.5 km/h 7.6 km/h 54 % 0 mm
22:24 16.7 °C 7.6 °C 1015.8 hPa South 12.9 km/h 8.7 km/h 55 % 0 mm
22:29 16.4 °C 7.4 °C 1016.1 hPa South 11.1 km/h 8.2 km/h 55 % 0 mm
22:34 16.3 °C 7.5 °C 1016.1 hPa South 9.3 km/h 5 km/h 56 % 0 mm
22:39 16.1 °C 7.6 °C 1016.1 hPa South 11.1 km/h 8.7 km/h 57 % 0 mm
22:44 15.9 °C 7.7 °C 1016.1 hPa South 11.3 km/h 7.1 km/h 58 % 0 mm
22:49 15.8 °C 7.6 °C 1016.1 hPa South 14.8 km/h 6.8 km/h 58 % 0 mm
22:54 15.7 °C 7.7 °C 1016.1 hPa South 11.1 km/h 7.4 km/h 59 % 0 mm
22:59 15.6 °C 7.6 °C 1016.1 hPa South 14.8 km/h 6.8 km/h 59 % 0 mm
23:04 15.4 °C 7.7 °C 1016.1 hPa South 16.7 km/h 7.9 km/h 60 % 0 mm
23:09 15.4 °C 7.7 °C 1016.1 hPa South 11.1 km/h 4.2 km/h 60 % 0 mm
23:14 15.3 °C 7.8 °C 1016.1 hPa South 14.8 km/h 11.7 km/h 61 % 0 mm
23:19 15.2 °C 7.7 °C 1016.1 hPa South 13 km/h 6.8 km/h 61 % 0 mm
23:24 15.2 °C 7.9 °C 1016.1 hPa North 16.7 km/h 10.9 km/h 62 % 0 mm
23:29 15.1 °C 7.9 °C 1016.1 hPa South 11.1 km/h 6.9 km/h 62 % 0 mm
23:34 15 °C 8 °C 1015.8 hPa South 11.1 km/h 8.9 km/h 63 % 0 mm
23:39 14.9 °C 7.9 °C 1015.8 hPa South 9.7 km/h 8.9 km/h 63 % 0 mm
23:44 14.9 °C 7.9 °C 1015.8 hPa North 11.1 km/h 8.4 km/h 63 % 0 mm
23:49 14.9 °C 8.1 °C 1015.8 hPa South 11.1 km/h 7.6 km/h 64 % 0 mm
23:54 14.9 °C 8.1 °C 1015.8 hPa South 13 km/h 5.6 km/h 64 % 0 mm
23:59 14.8 °C 8.1 °C 1015.8 hPa South 11.1 km/h 7.7 km/h 64 % 0 mm
Ararat Weather
Compliments of Weather Underground - 2 mb
Click here to send mail.


ABOUT

Live weather data from Ararat, Victoria, Australia, 3377
Data uploaded from Cumulus every 5 minutes to Weather Underground.
This site then downloads the raw data for formatting and display.
Metric and imperial data can be displayed. Graphs and historical data available.
Includes Sun and Moon times and rain image live from BOM.

Check out Ararat Weather on Facebook, Twitter and Google +

Help support ongoing costs by checking out the ads





Follow @AraratWeather